Time;durP1;ratioP1;P1;durP2;ratioP2;P2;SDS_P1;SDS_P2;PMS_P1;PMS_P2;Temp;Humidity;BMP_temperature;BMP_pressure;BME280_temperature;BME280_humidity;BME280_pressure;Samples;Min_cycle;Max_cycle;Signal;HPM_P1;HPM_P2
2022/06/02 00:00:57;;;;;;;1.60;1.30;;;16.50;45.60;;;16.80;40.66;97773.88;5025787;28;20045;-40
2022/06/02 00:04:00;;;;;;;2.95;1.40;;;16.40;46.10;;;16.71;40.61;97784.78;5024541;28;20052;-40
2022/06/02 00:06:33;;;;;;;3.90;1.80;;;16.30;46.10;;;16.71;40.56;97783.94;5026922;28;20049;-41
2022/06/02 00:09:15;;;;;;;1.70;1.50;;;16.30;45.90;;;16.72;40.35;97781.06;5025130;28;20055;-41
2022/06/02 00:12:00;;;;;;;1.60;1.50;;;16.30;45.60;;;16.72;40.60;97777.53;5023263;28;20243;-40
2022/06/02 00:15:02;;;;;;;3.42;1.50;;;16.40;45.70;;;16.70;41.08;97775.06;5027078;28;20058;-40
2022/06/02 00:17:48;;;;;;;3.65;1.75;;;16.40;46.50;;;16.70;40.52;97779.59;5030236;28;20061;-41
2022/06/02 00:20:54;;;;;;;1.42;1.33;;;16.30;45.60;;;16.71;40.42;97781.25;5029968;28;20348;-41
2022/06/02 00:24:06;;;;;;;1.55;1.45;;;16.40;45.30;;;16.66;40.41;97775.66;5030384;28;20255;-41
2022/06/02 00:27:04;;;;;;;2.42;1.80;;;16.30;45.50;;;16.65;40.60;97777.53;5028718;28;20072;-40
2022/06/02 00:30:00;;;;;;;3.17;2.20;;;16.30;45.50;;;16.66;40.61;97783.72;5030723;28;20061;-40
2022/06/02 00:33:15;;;;;;;1.80;1.45;;;16.30;45.40;;;16.65;40.80;97777.53;5030541;28;20050;-41
2022/06/02 00:35:57;;;;;;;2.47;1.70;;;16.40;45.40;;;16.66;40.42;97784.53;5029790;28;20060;-40
2022/06/02 00:38:39;;;;;;;1.77;1.60;;;16.30;45.40;;;16.67;40.50;97783.53;5028618;28;20052;-43
2022/06/02 00:41:42;;;;;;;1.73;1.63;;;16.30;45.20;;;16.71;40.19;97784.78;5028114;28;20053;-42
2022/06/02 00:44:32;;;;;;;2.53;1.50;;;16.40;45.20;;;16.67;40.59;97783.53;5029478;28;20057;-41
2022/06/02 00:47:28;;;;;;;1.95;1.67;;;16.40;45.00;;;16.61;40.33;97786.97;5027571;28;20049;-41
2022/06/02 00:50:25;;;;;;;3.20;1.50;;;16.30;45.30;;;16.61;40.38;97776.22;5028893;28;20079;-40
2022/06/02 00:53:34;;;;;;;2.17;1.60;;;16.30;45.40;;;16.61;40.48;97778.09;5029115;28;20091;-41
2022/06/02 01:00:04;;;;;;;1.92;1.55;;;16.30;46.10;;;16.51;41.50;97787.31;5028643;28;20060;-41
2022/06/02 01:02:49;;;;;;;3.35;1.80;;;16.20;46.50;;;16.50;41.09;97785.66;5026850;28;20401;-41
2022/06/02 01:05:53;;;;;;;1.40;1.30;;;16.10;46.20;;;16.47;41.01;97786.06;5027074;28;20053;-41
2022/06/02 01:08:28;;;;;;;2.03;1.42;;;16.10;46.40;;;16.26;41.26;97786.09;5028862;28;20059;-41
2022/06/02 01:11:17;;;;;;;1.90;1.70;;;15.90;46.30;;;16.30;40.99;97793.59;5027799;28;20263;-41
2022/06/02 01:14:15;;;;;;;4.30;1.70;;;15.90;46.60;;;16.34;41.21;97799.38;5028143;28;20075;-41
2022/06/02 01:17:16;;;;;;;2.15;1.55;;;16.00;46.80;;;16.36;41.14;97796.50;5028524;28;20057;-42
2022/06/02 01:19:58;;;;;;;2.15;1.52;;;16.00;46.50;;;16.28;41.49;97797.47;5028710;28;20084;-41
2022/06/02 01:22:48;;;;;;;3.50;1.60;;;15.90;46.40;;;16.29;41.47;97797.28;5028272;28;20053;-41
2022/06/02 01:25:48;;;;;;;2.25;1.80;;;16.00;47.10;;;16.25;41.79;97789.81;5028631;28;20057;-42
2022/06/02 01:28:44;;;;;;;2.88;1.35;;;15.90;47.30;;;16.20;42.48;97794.94;5028083;28;20049;-41
2022/06/02 01:31:43;;;;;;;4.53;1.67;;;15.90;48.20;;;16.20;42.13;97800.31;5027807;28;20057;-40
2022/06/02 01:34:19;;;;;;;3.15;1.50;;;15.90;48.30;;;16.19;42.01;97802.16;5028895;28;20063;-41
2022/06/02 01:36:56;;;;;;;3.72;1.60;;;15.80;47.50;;;16.18;42.28;97805.84;5027941;28;20344;-43
2022/06/02 01:39:48;;;;;;;2.38;1.40;;;15.80;47.60;;;16.15;42.35;97800.91;5028456;28;20064;-41
2022/06/02 01:42:43;;;;;;;2.33;1.63;;;15.80;48.00;;;16.17;42.36;97803.34;5029010;28;20356;-42
2022/06/02 01:45:42;;;;;;;2.38;1.65;;;15.80;48.00;;;16.17;42.31;97801.53;5028050;28;20075;-41
2022/06/02 01:48:48;;;;;;;1.85;1.75;;;15.80;47.70;;;16.04;43.07;97809.47;5026379;28;20060;-42
2022/06/02 01:51:29;;;;;;;6.13;1.95;;;15.70;48.60;;;16.03;42.44;97805.09;5028396;28;20053;-43
2022/06/02 01:54:22;;;;;;;1.70;1.48;;;15.70;48.90;;;16.02;42.85;97811.50;5027291;28;20235;-40
2022/06/02 01:57:02;;;;;;;2.75;2.17;;;15.70;48.70;;;15.97;42.71;97804.00;5028327;28;20273;-40
2022/06/02 01:59:45;;;;;;;2.65;1.70;;;15.60;49.10;;;15.94;42.65;97815.16;5025933;28;20332;-40
2022/06/02 02:02:36;;;;;;;2.35;1.50;;;15.60;48.90;;;15.90;42.52;97822.75;5027906;28;20057;-43
2022/06/02 02:05:29;;;;;;;2.90;1.40;;;15.50;48.80;;;15.86;42.69;97826.84;5027883;28;20051;-40
2022/06/02 02:08:00;;;;;;;5.93;1.83;;;15.50;49.30;;;15.88;42.47;97832.03;5027979;28;20060;-42
2022/06/02 02:10:56;;;;;;;2.60;1.90;;;15.50;48.60;;;15.79;42.92;97820.56;5028276;28;20235;-40
2022/06/02 02:13:45;;;;;;;2.45;2.10;;;15.40;49.60;;;15.75;43.09;97819.28;5027360;28;20322;-43
2022/06/02 02:17:02;;;;;;;3.75;1.83;;;15.40;49.40;;;15.73;43.05;97815.97;5029551;28;20045;-42
2022/06/02 02:19:58;;;;;;;2.78;1.92;;;15.30;49.90;;;15.74;43.05;97825.66;5027713;28;20047;-40
2022/06/02 02:22:43;;;;;;;1.90;1.80;;;15.40;49.80;;;15.70;43.36;97833.25;5026747;28;20253;-40
2022/06/02 02:25:29;;;;;;;1.85;1.70;;;15.30;48.80;;;15.69;43.13;97828.06;5027308;28;20049;-41
2022/06/02 02:28:24;;;;;;;4.57;1.60;;;15.30;49.40;;;15.66;43.19;97823.88;5026677;28;20049;-43
2022/06/02 02:31:25;;;;;;;2.63;2.17;;;15.30;49.10;;;15.70;43.39;97832.41;5027278;28;20041;-40
2022/06/02 02:34:31;;;;;;;3.00;1.98;;;15.40;49.50;;;15.68;43.36;97831.75;5027386;28;20055;-41
2022/06/02 02:37:09;;;;;;;;;;;15.30;49.60;;;15.57;43.54;97833.09;5027264;28;20056;-41
2022/06/02 02:39:57;;;;;;;2.47;1.60;;;15.20;50.70;;;15.56;43.40;97834.91;5026682;28;19931;-40
2022/06/02 02:42:35;;;;;;;2.70;1.90;;;15.10;50.20;;;15.50;44.47;97833.00;5026136;28;20052;-43
2022/06/02 02:45:46;;;;;;;2.95;1.83;;;15.10;50.10;;;15.47;43.74;97833.38;5026273;28;20042;-43
2022/06/02 02:49:05;;;;;;;2.28;1.70;;;15.10;50.70;;;15.44;43.74;97830.25;5024256;28;20061;-40
2022/06/02 02:52:26;;;;;;;1.95;1.67;;;15.10;50.80;;;15.43;44.09;97836.63;5027285;28;20057;-40
2022/06/02 02:55:28;;;;;;;3.50;1.90;;;15.10;50.80;;;15.44;43.79;97835.63;5026099;28;20072;-41
2022/06/02 02:58:20;;;;;;;4.05;1.70;;;15.00;50.10;;;15.39;43.94;97835.34;5032515;28;20467;-41
2022/06/02 03:01:05;;;;;;;3.75;2.20;;;15.00;50.70;;;15.40;44.01;97837.00;5025646;28;20390;-41
2022/06/02 03:03:58;;;;;;;4.63;3.38;;;15.00;50.00;;;15.41;44.20;97831.47;5026424;28;20059;-44
2022/06/02 03:06:32;;;;;;;2.55;2.08;;;15.10;50.40;;;15.42;43.91;97834.97;5027247;28;20060;-42
2022/06/02 03:09:34;;;;;;;3.90;1.83;;;15.10;50.30;;;15.38;44.33;97839.88;5026120;28;20076;-42
2022/06/02 03:12:18;;;;;;;3.17;2.42;;;15.10;51.10;;;15.39;44.03;97840.69;5026320;28;20060;-42
2022/06/02 03:15:13;;;;;;;;;;;15.00;50.80;;;15.36;44.30;97841.91;5024235;28;20243;-42
2022/06/02 03:18:23;;;;;;;3.53;1.60;;;15.00;51.50;;;15.36;44.75;97837.38;5026834;28;19917;-44
2022/06/02 03:21:19;;;;;;;2.95;1.73;;;15.00;51.20;;;15.38;44.24;97841.72;5041027;28;20340;-42
2022/06/02 03:24:05;;;;;;;2.20;1.70;;;15.00;50.80;;;15.40;44.38;97840.50;5027821;28;20049;-45
2022/06/02 03:27:18;;;;;;;2.97;1.90;;;15.10;50.30;;;15.34;44.52;97843.94;5026856;28;20050;-44
2022/06/02 03:30:13;;;;;;;2.15;1.67;;;15.10;50.80;;;15.38;44.25;97839.88;5024868;28;20053;-41
2022/06/02 03:33:30;;;;;;;;;;;15.00;50.80;;;15.31;45.06;97842.44;5026400;28;20116;-42
2022/06/02 03:36:32;;;;;;;1.85;1.42;;;15.00;51.40;;;15.25;44.55;97845.06;5023891;28;19932;-42
2022/06/02 03:39:36;;;;;;;2.75;1.90;;;14.80;51.30;;;15.26;44.74;97854.78;5006997;28;20441;-42
2022/06/02 03:42:37;;;;;;;2.88;1.58;;;14.90;51.70;;;15.24;44.78;97848.78;5025961;28;20048;-42
2022/06/02 03:45:27;;;;;;;3.28;1.90;;;14.90;51.50;;;15.23;44.33;97853.28;5024137;28;20060;-44
2022/06/02 03:48:20;;;;;;;2.53;1.58;;;14.80;50.70;;;15.24;44.80;97846.09;5025335;28;20053;-44
2022/06/02 03:51:13;;;;;;;3.60;2.38;;;14.90;51.30;;;15.18;44.45;97852.19;5027335;28;20060;-41
2022/06/02 03:54:25;;;;;;;1.85;1.65;;;14.80;51.20;;;15.12;44.69;97843.88;5027427;28;20062;-42
2022/06/02 03:57:11;;;;;;;3.67;1.77;;;14.80;51.40;;;15.17;44.37;97851.34;5026111;28;20065;-43
2022/06/02 04:00:28;;;;;;;4.05;1.80;;;14.80;51.10;;;15.22;44.82;97853.47;5026317;28;20054;-42
2022/06/02 04:03:04;;;;;;;1.60;1.50;;;14.90;50.50;;;15.24;44.36;97854.97;5023494;28;20669;-42
2022/06/02 04:06:20;;;;;;;3.80;2.22;;;14.90;50.50;;;15.23;44.39;97850.59;5026548;28;20063;-42
2022/06/02 04:09:02;;;;;;;2.47;1.90;;;14.90;51.20;;;15.21;44.51;97855.31;5024970;28;20139;-41
2022/06/02 04:15:34;;;;;;;4.28;2.42;;;14.70;51.90;;;15.12;44.69;97861.78;5025908;28;20459;-42
2022/06/02 04:18:11;;;;;;;5.25;2.25;;;14.70;51.10;;;15.13;44.67;97864.28;5023904;28;20352;-42
2022/06/02 04:21:12;;;;;;;3.22;2.33;;;14.70;51.10;;;15.12;44.67;97865.31;5025455;28;20057;-42
2022/06/02 04:24:07;;;;;;;4.38;3.00;;;14.80;51.30;;;15.10;44.93;97867.38;5026096;28;20553;-43
2022/06/02 04:27:02;;;;;;;2.85;2.53;;;14.70;51.90;;;15.10;44.88;97870.03;5025716;28;20058;-42
2022/06/02 04:30:24;;;;;;;3.28;2.20;;;14.70;51.10;;;15.09;44.98;97860.31;5026203;28;20057;-42
2022/06/02 04:33:34;;;;;;;2.92;2.08;;;14.80;51.90;;;15.06;45.60;97859.84;5039643;28;20060;-42
2022/06/02 04:36:40;;;;;;;2.83;2.08;;;14.80;52.30;;;14.99;45.32;97870.50;5015174;28;20247;-42
2022/06/02 04:39:28;;;;;;;2.33;2.03;;;14.70;52.40;;;14.92;45.55;97878.41;5026877;28;20049;-42
2022/06/02 04:42:14;;;;;;;3.58;2.28;;;14.50;53.10;;;14.90;45.39;97875.09;5026521;28;20252;-42
2022/06/02 04:45:04;;;;;;;2.15;1.80;;;14.50;52.90;;;14.91;45.66;97874.09;5025770;28;20669;-42
2022/06/02 04:47:55;;;;;;;4.85;2.17;;;14.60;52.60;;;14.92;45.67;97875.75;5025009;28;20049;-42
2022/06/02 04:50:49;;;;;;;3.67;2.30;;;14.60;52.70;;;14.92;46.35;97873.06;5025882;28;20192;-41
2022/06/02 04:53:37;;;;;;;2.33;2.00;;;14.60;53.20;;;14.96;45.80;97871.66;5027199;28;20157;-42
2022/06/02 04:56:17;;;;;;;3.40;1.95;;;14.70;52.50;;;15.03;45.73;97879.81;5024487;28;20061;-42
2022/06/02 04:59:11;;;;;;;4.30;2.40;;;14.80;52.40;;;15.10;45.48;97878.09;5025847;28;20067;-44
2022/06/02 05:01:47;;;;;;;3.45;2.20;;;14.90;51.80;;;15.10;45.38;97879.91;5026741;28;20292;-42
2022/06/02 05:04:46;;;;;;;2.67;1.95;;;15.00;51.10;;;15.12;45.59;97877.88;5030229;28;20103;-42
2022/06/02 05:07:34;;;;;;;2.80;2.10;;;15.00;50.90;;;15.11;45.26;97871.69;5028479;28;20061;-43
2022/06/02 05:13:35;;;;;;;4.43;1.95;;;15.10;50.40;;;15.22;45.18;97882.97;5029761;28;20053;-42
2022/06/02 05:16:43;;;;;;;3.88;1.88;;;15.00;50.60;;;15.25;45.10;97885.28;5028937;28;20049;-41
2022/06/02 05:19:35;;;;;;;5.00;2.20;;;15.10;51.10;;;15.31;45.26;97895.28;5030539;28;20672;-43
2022/06/02 05:22:31;;;;;;;2.47;2.28;;;15.20;51.00;;;15.33;45.25;97890.56;5029004;28;20248;-43
2022/06/02 05:25:14;;;;;;;3.15;2.10;;;15.20;50.90;;;15.35;45.00;97899.25;5028677;28;20057;-44
2022/06/02 05:28:48;;;;;;;3.25;2.10;;;15.20;50.10;;;15.40;45.15;97899.53;5026881;28;20045;-42
2022/06/02 05:31:41;;;;;;;4.90;2.20;;;15.30;50.60;;;15.44;45.19;97906.19;5025924;28;20053;-42
2022/06/02 05:34:31;;;;;;;4.30;2.25;;;15.30;50.40;;;15.42;45.78;97908.22;5027961;28;20052;-42
2022/06/02 05:37:16;;;;;;;5.13;2.45;;;15.40;51.10;;;15.48;45.19;97912.84;5028151;28;20060;-43
2022/06/02 05:40:15;;;;;;;2.30;2.13;;;15.40;50.90;;;15.50;44.88;97916.16;5027849;28;20053;-42
2022/06/02 05:43:10;;;;;;;2.30;2.10;;;15.40;50.70;;;15.51;44.87;97907.13;5028753;28;20083;-44
2022/06/02 05:45:53;;;;;;;2.50;2.00;;;15.40;50.70;;;15.56;45.18;97912.75;5029409;28;20053;-43
2022/06/02 05:48:54;;;;;;;2.40;2.20;;;15.40;51.10;;;15.57;44.80;97918.97;5028836;28;20053;-43
2022/06/02 05:51:58;;;;;;;5.93;2.30;;;15.40;50.60;;;15.54;44.87;97912.09;5027815;28;20041;-44
2022/06/02 05:55:03;;;;;;;3.17;2.25;;;15.30;51.00;;;15.58;44.69;97917.09;5027395;28;20053;-41
2022/06/02 05:57:53;;;;;;;2.80;2.50;;;15.40;50.40;;;15.59;45.14;97924.16;5028295;28;20255;-44
2022/06/02 06:00:50;;;;;;;2.88;2.45;;;15.40;50.70;;;15.59;44.72;97919.59;5027444;28;20053;-47
2022/06/02 06:04:01;;;;;;;2.70;2.47;;;15.40;50.60;;;15.63;44.84;97920.06;5026686;28;20055;-45
2022/06/02 06:06:55;;;;;;;3.08;2.20;;;15.50;50.50;;;15.70;44.25;97918.28;5027705;28;20363;-44
2022/06/02 06:09:50;;;;;;;4.78;2.22;;;15.50;49.30;;;15.70;44.71;97919.13;5027705;28;20049;-45
2022/06/02 06:12:51;;;;;;;4.22;2.30;;;15.50;50.10;;;15.72;44.93;97922.47;5028151;28;20049;-43
2022/06/02 06:15:37;;;;;;;2.30;2.10;;;15.50;50.60;;;15.77;44.76;97929.97;5025176;28;20060;-41
2022/06/02 06:18:48;;;;;;;4.45;2.42;;;15.60;50.90;;;15.79;44.93;97927.09;5026965;28;20046;-45
2022/06/02 06:21:51;;;;;;;4.13;2.58;;;15.60;50.50;;;15.83;44.41;97931.06;5038008;28;20057;-43
2022/06/02 06:24:32;;;;;;;5.22;2.60;;;15.70;49.30;;;15.87;44.15;97922.44;5027515;28;20045;-43
2022/06/02 06:27:02;;;;;;;3.45;2.38;;;15.70;49.30;;;15.88;43.93;97929.50;5027448;28;20332;-44
2022/06/02 06:29:39;;;;;;;3.20;2.22;;;15.80;48.30;;;15.91;43.59;97931.78;5027008;28;20247;-43
2022/06/02 06:32:21;;;;;;;5.15;2.95;;;15.80;48.10;;;15.89;43.41;97933.00;5027139;28;20054;-41
2022/06/02 06:35:05;;;;;;;5.88;2.97;;;15.90;47.80;;;15.92;43.61;97928.09;5027774;28;20165;-44
2022/06/02 06:38:04;;;;;;;5.05;2.60;;;15.90;47.80;;;15.99;43.59;97930.03;5027106;28;20048;-44
2022/06/02 06:41:12;;;;;;;2.92;2.20;;;15.90;48.10;;;16.02;43.27;97932.34;5027806;28;20071;-41
2022/06/02 06:44:04;;;;;;;6.80;3.35;;;16.00;47.60;;;16.00;43.61;97927.16;5027317;28;20053;-44
2022/06/02 06:46:49;;;;;;;4.22;2.35;;;15.90;47.80;;;16.01;43.01;97931.50;5026473;28;20053;-41
2022/06/02 06:50:04;;;;;;;2.30;2.10;;;15.90;47.00;;;15.98;42.45;97934.56;5026024;28;20057;-43
2022/06/02 06:53:20;;;;;;;5.57;2.40;;;16.00;46.50;;;16.10;42.80;97935.72;5026133;28;20064;-41
2022/06/02 06:56:24;;;;;;;2.47;2.13;;;16.10;46.70;;;16.18;42.77;97924.03;5026625;28;20053;-42
2022/06/02 06:59:23;;;;;;;3.28;2.15;;;16.20;46.80;;;16.21;42.85;97936.28;5026587;28;20055;-45
2022/06/02 07:02:01;;;;;;;3.42;2.50;;;16.20;46.30;;;16.24;42.54;97922.44;5027810;28;20216;-45
2022/06/02 07:05:01;;;;;;;3.60;2.10;;;16.20;46.70;;;16.29;42.12;97923.53;5026103;28;20285;-45
2022/06/02 07:07:51;;;;;;;3.63;2.40;;;16.30;46.40;;;16.34;42.38;97934.56;5026239;28;20397;-45
2022/06/02 07:10:35;;;;;;;2.28;2.08;;;16.30;46.50;;;16.37;42.70;97933.34;5027392;28;20048;-43
2022/06/02 07:13:22;;;;;;;3.05;2.22;;;16.30;47.00;;;16.40;42.66;97924.91;5026917;28;20061;-46
2022/06/02 07:16:00;;;;;;;3.92;2.17;;;16.40;46.80;;;16.46;42.70;97931.34;5025746;28;20053;-47
2022/06/02 07:19:03;;;;;;;3.50;2.35;;;16.50;46.90;;;16.54;42.67;97936.63;5026733;28;20061;-45
2022/06/02 07:21:57;;;;;;;4.65;2.22;;;16.50;46.80;;;16.61;42.54;97939.34;5026416;28;20063;-43
2022/06/02 07:24:43;;;;;;;3.22;2.30;;;16.60;46.10;;;16.65;42.49;97943.31;5026337;28;20049;-44
2022/06/02 07:27:39;;;;;;;2.33;2.13;;;16.60;46.50;;;16.62;42.31;97939.16;5024192;28;20250;-45
2022/06/02 07:30:32;;;;;;;5.15;2.95;;;16.70;46.60;;;16.65;42.24;97928.03;5026180;28;20045;-44
2022/06/02 07:33:36;;;;;;;3.63;2.45;;;16.70;46.20;;;16.63;42.26;97927.38;5025978;28;20045;-43
2022/06/02 07:36:38;;;;;;;2.20;2.00;;;16.60;46.30;;;16.70;42.58;97932.81;5025953;28;20063;-42
2022/06/02 07:39:58;;;;;;;4.50;2.00;;;16.70;46.40;;;16.78;42.16;97935.38;5026449;28;20048;-43
2022/06/02 07:43:20;;;;;;;2.72;2.50;;;16.80;45.60;;;16.82;42.66;97933.16;5025554;28;20049;-45
2022/06/02 07:46:49;;;;;;;4.97;2.50;;;16.90;46.80;;;16.82;41.85;97935.84;5024277;28;20501;-43
2022/06/02 07:49:57;;;;;;;5.88;2.25;;;16.80;45.40;;;16.83;41.93;97924.91;4986682;28;20229;-44
2022/06/02 07:52:53;;;;;;;3.20;2.30;;;16.80;46.00;;;16.85;41.76;97928.22;5026622;28;20072;-44
2022/06/02 07:56:05;;;;;;;2.50;2.20;;;16.90;45.80;;;16.96;41.26;97928.72;5024573;28;20049;-43
2022/06/02 07:59:16;;;;;;;5.03;2.25;;;17.00;44.90;;;17.00;41.46;97930.00;5025857;28;20049;-45
2022/06/02 08:02:08;;;;;;;4.93;2.88;;;17.00;44.30;;;17.03;41.23;97927.75;5031127;28;20059;-47
2022/06/02 08:04:51;;;;;;;3.72;2.40;;;17.00;45.20;;;17.09;41.16;97932.34;5029811;28;20045;-46
2022/06/02 08:07:33;;;;;;;4.30;2.40;;;17.10;44.50;;;17.17;41.11;97927.84;5032854;28;20370;-44
2022/06/02 08:10:25;;;;;;;3.88;2.70;;;17.20;44.90;;;17.25;41.25;97930.38;5033174;28;20053;-46
2022/06/02 08:13:02;;;;;;;3.70;2.28;;;17.30;44.40;;;17.33;41.38;97935.59;5033603;28;20056;-44
2022/06/02 08:15:55;;;;;;;6.93;2.40;;;17.40;44.80;;;17.36;40.62;97939.78;5033869;28;20234;-44
2022/06/02 08:18:48;;;;;;;2.72;2.17;;;17.40;44.20;;;17.36;41.08;97942.47;5033349;28;20042;-48
2022/06/02 08:21:29;;;;;;;2.40;1.98;;;17.40;44.50;;;17.40;40.94;97931.09;5030462;28;20279;-46
2022/06/02 08:24:27;;;;;;;3.17;2.10;;;17.50;45.50;;;17.33;40.02;97940.97;5032785;28;20064;-48
2022/06/02 08:27:15;;;;;;;5.20;2.42;;;17.40;43.40;;;17.37;39.62;97939.59;5030413;28;20073;-47
2022/06/02 08:30:17;;;;;;;2.78;1.90;;;17.40;43.70;;;17.45;39.54;97938.59;5024651;28;20056;-45
2022/06/02 08:33:25;;;;;;;2.08;1.80;;;17.50;42.10;;;17.54;39.85;97944.63;5022633;28;20091;-44
2022/06/02 08:36:15;;;;;;;5.15;2.25;;;17.60;43.30;;;17.62;40.41;97937.25;5026038;28;20049;-46
2022/06/02 08:39:09;;;;;;;5.90;2.50;;;17.70;43.50;;;17.65;40.02;97938.69;5029641;28;20045;-44
2022/06/02 08:42:18;;;;;;;4.45;2.15;;;17.70;42.90;;;17.69;39.85;97937.25;5028376;28;20049;-46
2022/06/02 08:45:07;;;;;;;3.00;2.05;;;17.80;42.70;;;17.77;39.61;97939.78;5028402;28;20057;-45
2022/06/02 08:48:17;;;;;;;2.63;2.20;;;17.90;42.50;;;17.83;39.14;97940.84;5030076;28;20075;-45
2022/06/02 08:50:48;;;;;;;3.67;1.65;;;17.90;41.10;;;17.87;38.83;97934.91;5027965;28;20348;-43
2022/06/02 08:53:56;;;;;;;3.60;2.10;;;17.90;41.80;;;17.93;39.03;97937.81;5029203;28;20052;-47
2022/06/02 08:56:55;;;;;;;2.28;1.98;;;18.00;40.90;;;17.95;38.91;97941.13;5029683;28;20057;-44
2022/06/02 08:59:54;;;;;;;4.32;2.40;;;18.00;41.40;;;17.98;39.39;97941.56;5027923;28;20049;-45
2022/06/02 09:03:32;;;;;;;1.98;1.60;;;18.10;42.20;;;18.00;37.48;97952.97;5030688;28;20193;-43
2022/06/02 09:06:19;;;;;;;3.25;2.00;;;18.20;39.70;;;18.09;38.46;97950.94;5030560;28;20049;-46
2022/06/02 09:09:23;;;;;;;3.20;1.83;;;18.20;40.30;;;18.12;37.62;97950.53;5028675;28;20045;-43
2022/06/02 09:12:48;;;;;;;2.03;1.80;;;18.30;40.00;;;18.15;37.99;97946.63;5029063;28;20612;-44
2022/06/02 09:16:15;;;;;;;4.18;2.05;;;18.30;39.60;;;18.20;38.22;97944.13;5026774;28;20060;-42
2022/06/02 09:19:05;;;;;;;3.03;2.10;;;18.30;40.30;;;18.28;38.31;97941.25;5026830;28;20063;-47
2022/06/02 09:22:01;;;;;;;3.00;2.00;;;18.40;41.40;;;18.33;38.31;97949.56;5028849;28;20080;-48
2022/06/02 09:25:17;;;;;;;3.58;2.05;;;18.50;40.60;;;18.39;37.41;97951.44;5029297;28;20053;-46
2022/06/02 09:28:33;;;;;;;2.70;1.90;;;18.70;39.80;;;18.53;38.07;97944.19;5028622;28;20065;-43
2022/06/02 09:31:31;;;;;;;3.42;2.30;;;18.70;40.60;;;18.57;37.28;97945.47;5025034;28;20063;-46
2022/06/02 09:34:37;;;;;;;3.80;1.85;;;18.80;39.30;;;18.62;37.95;97940.28;5028657;28;20362;-43
2022/06/02 09:37:37;;;;;;;4.85;2.80;;;18.80;40.50;;;18.66;37.31;97936.13;5026463;28;20064;-46
2022/06/02 09:40:23;;;;;;;2.78;2.00;;;18.90;39.70;;;18.63;36.84;97933.00;5007540;28;20112;-45
2022/06/02 09:43:24;;;;;;;2.63;2.20;;;18.90;40.00;;;18.69;37.29;97937.59;5008285;28;20053;-46
2022/06/02 09:46:30;;;;;;;3.58;2.22;;;18.90;38.80;;;18.75;37.09;97931.38;5007600;28;20099;-46
2022/06/02 09:49:51;;;;;;;2.88;1.90;;;19.00;40.20;;;18.87;36.70;97937.84;5008539;28;20066;-44
2022/06/02 09:52:50;;;;;;;4.20;2.13;;;19.20;38.70;;;18.93;36.71;97938.06;5008684;28;20052;-45
2022/06/02 09:55:37;;;;;;;3.50;2.30;;;19.20;38.80;;;18.95;36.98;97942.19;5009051;28;20057;-45
2022/06/02 09:58:34;;;;;;;4.05;2.28;;;19.30;39.00;;;19.08;37.39;97944.06;5008978;28;20060;-44
2022/06/02 10:01:38;;;;;;;2.13;1.92;;;19.40;39.80;;;19.16;36.35;97941.16;5008043;28;20061;-46
2022/06/02 10:04:36;;;;;;;4.45;2.33;;;19.40;39.00;;;19.17;36.28;97941.97;5008927;28;20062;-45
2022/06/02 10:07:19;;;;;;;4.10;2.20;;;19.50;39.40;;;19.21;36.41;97935.97;5008574;28;20066;-47
2022/06/02 10:10:09;;;;;;;3.45;1.88;;;19.40;38.50;;;19.22;36.81;97936.78;5026168;28;20061;-47
2022/06/02 10:13:34;;;;;;;4.28;2.10;;;19.50;39.50;;;19.30;36.79;97931.16;5025827;28;20113;-45
2022/06/02 10:16:48;;;;;;;4.45;2.40;;;19.60;39.20;;;19.40;36.66;97928.84;5027803;28;20343;-46
2022/06/02 10:20:33;;;;;;;4.65;2.40;;;19.70;38.50;;;19.37;36.51;97923.91;5027902;28;20051;-48
2022/06/02 10:23:19;;;;;;;5.30;2.33;;;19.60;38.00;;;19.46;36.61;97921.78;5026069;28;20056;-46
2022/06/02 10:26:05;;;;;;;6.80;2.20;;;19.70;39.00;;;19.53;36.74;97927.19;5025720;28;20049;-48
2022/06/02 10:28:54;;;;;;;4.78;2.38;;;19.80;39.20;;;19.52;36.15;97914.72;5007693;28;20069;-46
2022/06/02 10:32:02;;;;;;;4.53;2.05;;;19.80;38.50;;;19.61;37.04;97913.44;5028921;28;20350;-46
2022/06/02 10:35:04;;;;;;;4.28;2.00;;;19.90;38.90;;;19.67;36.63;97909.88;5027495;28;20053;-45
2022/06/02 10:37:43;;;;;;;3.35;2.00;;;19.90;38.80;;;19.73;36.85;97911.75;5027667;28;20314;-45
2022/06/02 10:41:11;;;;;;;3.25;1.60;;;19.90;39.90;;;19.72;36.74;97909.31;5026159;28;20059;-45
2022/06/02 10:44:12;;;;;;;3.08;1.80;;;19.90;38.90;;;19.79;36.40;97912.78;5027464;28;20053;-46
2022/06/02 10:47:13;;;;;;;3.60;2.10;;;20.00;38.20;;;19.83;36.41;97906.75;5029115;28;20061;-44
2022/06/02 10:50:10;;;;;;;2.67;1.88;;;20.10;38.70;;;19.91;36.83;97912.94;5026350;28;20059;-46
2022/06/02 10:53:41;;;;;;;4.28;1.95;;;20.20;38.80;;;19.94;36.71;97913.34;5027615;28;20057;-46
2022/06/02 10:56:58;;;;;;;3.78;2.67;;;20.20;38.40;;;19.99;36.38;97910.84;5026371;28;20368;-46
2022/06/02 10:59:56;;;;;;;1.90;1.80;;;20.30;38.20;;;20.00;35.96;97911.66;5025548;28;20071;-48
2022/06/02 11:02:49;;;;;;;2.20;2.00;;;20.30;37.90;;;19.99;35.58;97908.13;5026856;28;20268;-47
2022/06/02 11:05:56;;;;;;;2.70;1.80;;;20.30;38.10;;;20.05;36.08;97901.06;5026989;28;20057;-46
2022/06/02 11:09:21;;;;;;;2.25;1.98;;;20.30;38.10;;;20.17;36.66;97898.50;5026392;28;20287;-49
2022/06/02 11:12:41;;;;;;;2.15;1.95;;;20.50;39.00;;;20.32;36.70;97890.91;5026400;28;20170;-49
2022/06/02 11:15:43;;;;;;;2.22;2.03;;;20.60;38.80;;;20.42;36.01;97890.44;5028216;28;20241;-48
2022/06/02 11:18:39;;;;;;;2.28;1.98;;;20.80;37.50;;;20.55;36.13;97895.75;5025113;28;20087;-47
2022/06/02 11:22:16;;;;;;;3.40;2.33;;;20.90;38.20;;;20.62;34.87;97890.31;5024876;28;20053;-50
2022/06/02 11:25:08;;;;;;;4.35;1.88;;;21.10;36.90;;;20.73;35.39;97888.78;5024957;28;20067;-49
2022/06/02 11:28:13;;;;;;;2.10;1.90;;;21.10;37.20;;;20.82;35.23;97884.72;5025599;28;20061;-44
2022/06/02 11:31:16;;;;;;;3.78;1.67;;;21.30;36.70;;;20.95;35.55;97879.22;5026070;28;20275;-39
2022/06/02 11:34:09;;;;;;;3.97;2.65;;;21.40;36.80;;;21.10;35.38;97878.88;5025843;28;20068;-40
2022/06/02 11:37:14;;;;;;;2.03;1.80;;;21.60;37.20;;;21.18;34.06;97883.16;5026344;28;20049;-40
2022/06/02 11:40:25;;;;;;;2.65;1.85;;;21.80;36.00;;;21.32;34.65;97873.84;5026770;28;20362;-40
2022/06/02 11:43:06;;;;;;;4.97;2.20;;;21.80;35.60;;;21.42;34.15;97874.19;5026281;28;20246;-40
2022/06/02 11:46:07;;;;;;;3.50;1.90;;;21.90;36.00;;;21.53;34.76;97869.91;5026764;28;20053;-40
2022/06/02 11:49:53;;;;;;;2.53;2.33;;;22.10;36.40;;;21.71;34.79;97870.94;5026154;28;20056;-40
2022/06/02 11:53:17;;;;;;;5.13;2.50;;;22.30;35.20;;;21.92;33.95;97870.47;5022847;28;20302;-40
2022/06/02 11:55:58;;;;;;;6.00;1.92;;;22.60;34.80;;;22.09;34.44;97859.81;5025548;28;20068;-40
2022/06/02 11:58:43;;;;;;;2.53;2.20;;;22.80;35.70;;;22.23;33.66;97860.44;5026700;28;20147;-40
2022/06/02 12:01:51;;;;;;;4.05;1.90;;;23.00;34.70;;;22.37;33.21;97858.38;5020981;28;20057;-40
2022/06/02 12:04:56;;;;;;;3.75;1.98;;;23.10;35.00;;;22.54;33.50;97861.28;5006896;28;20050;-40
2022/06/02 12:07:29;;;;;;;2.22;2.03;;;23.30;34.60;;;22.68;34.16;97865.44;5007047;28;20049;-40
2022/06/02 12:11:00;;;;;;;3.05;2.13;;;23.40;35.40;;;22.77;32.35;97872.16;5005365;28;20352;-40
2022/06/02 12:13:52;;;;;;;2.67;2.08;;;23.60;32.50;;;22.71;31.11;97872.28;5009890;28;20057;-40
2022/06/02 12:16:48;;;;;;;3.28;2.05;;;23.30;32.00;;;22.65;31.95;97868.59;5009298;28;20062;-40
2022/06/02 12:19:51;;;;;;;6.63;3.10;;;23.10;34.20;;;22.76;32.77;97869.66;5010625;28;20048;-40
2022/06/02 12:23:02;;;;;;;2.33;2.05;;;23.30;34.00;;;22.89;33.02;97849.63;5009367;28;20081;-40
2022/06/02 12:25:43;;;;;;;2.13;1.92;;;23.50;34.60;;;23.04;32.45;97855.44;5012521;28;20064;-40
2022/06/02 12:28:37;;;;;;;2.85;2.20;;;23.80;33.60;;;23.17;32.31;97851.69;5010749;28;20054;-40
2022/06/02 12:31:48;;;;;;;3.92;2.03;;;23.90;33.60;;;23.29;32.86;97847.06;5009486;28;20053;-40
2022/06/02 12:34:35;;;;;;;3.42;2.05;;;24.00;33.20;;;23.43;32.03;97846.78;5023160;28;20412;-40
2022/06/02 12:37:35;;;;;;;4.15;2.55;;;24.10;32.70;;;23.50;32.39;97836.63;5009305;28;20045;-40